Almond, New York
Current Conditions -  °F | °C
As of 2:54 AM on Thursday 23 Oct 2014 (Local Time) from KDSV Reporting Station
Few Clouds Few Clouds  
Wind Chill:   Ceiling: Unl
Heat Index:   Visibility: 10mi
Dew Point:   Wind: 7mph
Humidity: 86%   Direction: 340°NNW
Pressure: 30.11"   Gusts: NA
Location:  42.32°N, 77.74°W
Report Text: KDSV 230654Z AUTO 34006KT 10SM FEW028 07/05 A3011 RMK AO2 SLP206 T00720050
Loading
Personal Weather Stations






























Interactive Weather Map
Tropical Storm Tracking
New forecast layout! Learn more

10-Day Weather Forecast

Advertisements
Track Severe Weather on mobile